sensor_id;sensor_type;location;lat;lon;timestamp;temperature;humidity
25200;DHT22;33094;48.782;9.162;2023-05-07T00:00:19;16.00;99.90
25200;DHT22;33094;48.782;9.162;2023-05-07T00:02:48;16.70;99.90
25200;DHT22;33094;48.782;9.162;2023-05-07T00:05:14;16.40;99.90
25200;DHT22;33094;48.782;9.162;2023-05-07T00:07:40;16.10;99.90
25200;DHT22;33094;48.782;9.162;2023-05-07T00:10:06;15.90;99.90
25200;DHT22;33094;48.782;9.162;2023-05-07T00:12:32;15.80;99.90
25200;DHT22;33094;48.782;9.162;2023-05-07T00:15:04;15.80;99.90
25200;DHT22;33094;48.782;9.162;2023-05-07T00:17:31;15.80;99.90
25200;DHT22;33094;48.782;9.162;2023-05-07T00:19:56;16.50;99.90
25200;DHT22;33094;48.782;9.162;2023-05-07T00:22:22;15.90;99.90
25200;DHT22;33094;48.782;9.162;2023-05-07T00:24:47;16.40;99.90
25200;DHT22;33094;48.782;9.162;2023-05-07T00:27:13;16.40;99.90
25200;DHT22;33094;48.782;9.162;2023-05-07T00:29:39;15.90;99.90
25200;DHT22;33094;48.782;9.162;2023-05-07T00:32:04;15.80;99.90
25200;DHT22;33094;48.782;9.162;2023-05-07T00:34:30;15.80;99.90
25200;DHT22;33094;48.782;9.162;2023-05-07T00:36:56;15.90;99.90
25200;DHT22;33094;48.782;9.162;2023-05-07T00:39:21;15.90;99.90
25200;DHT22;33094;48.782;9.162;2023-05-07T00:41:47;16.50;99.90
25200;DHT22;33094;48.782;9.162;2023-05-07T00:44:13;15.60;99.90
25200;DHT22;33094;48.782;9.162;2023-05-07T00:46:39;17.00;99.90
25200;DHT22;33094;48.782;9.162;2023-05-07T00:49:05;15.50;99.90
25200;DHT22;33094;48.782;9.162;2023-05-07T00:51:31;16.10;99.90
25200;DHT22;33094;48.782;9.162;2023-05-07T00:53:57;16.10;99.90
25200;DHT22;33094;48.782;9.162;2023-05-07T00:56:23;16.50;99.90
25200;DHT22;33094;48.782;9.162;2023-05-07T00:58:49;15.50;99.90
25200;DHT22;33094;48.782;9.162;2023-05-07T01:01:15;15.30;99.90
25200;DHT22;33094;48.782;9.162;2023-05-07T01:03:42;15.40;99.90
25200;DHT22;33094;48.782;9.162;2023-05-07T01:06:09;15.30;99.90
25200;DHT22;33094;48.782;9.162;2023-05-07T01:08:35;15.30;99.90
25200;DHT22;33094;48.782;9.162;2023-05-07T01:11:02;15.30;99.90
25200;DHT22;33094;48.782;9.162;2023-05-07T01:13:28;16.20;99.90
25200;DHT22;33094;48.782;9.162;2023-05-07T01:15:54;15.30;99.90
25200;DHT22;33094;48.782;9.162;2023-05-07T01:18:20;15.20;99.90
25200;DHT22;33094;48.782;9.162;2023-05-07T01:20:47;15.90;99.90
25200;DHT22;33094;48.782;9.162;2023-05-07T01:23:12;16.00;99.90
25200;DHT22;33094;48.782;9.162;2023-05-07T01:25:38;15.80;99.90
25200;DHT22;33094;48.782;9.162;2023-05-07T01:28:04;15.30;99.90
25200;DHT22;33094;48.782;9.162;2023-05-07T01:30:30;15.10;99.90
25200;DHT22;33094;48.782;9.162;2023-05-07T01:33:09;16.20;99.90
25200;DHT22;33094;48.782;9.162;2023-05-07T01:35:39;14.90;99.90
25200;DHT22;33094;48.782;9.162;2023-05-07T01:38:06;14.90;99.90
25200;DHT22;33094;48.782;9.162;2023-05-07T01:40:32;14.90;99.90
25200;DHT22;33094;48.782;9.162;2023-05-07T01:43:00;14.80;99.90
25200;DHT22;33094;48.782;9.162;2023-05-07T01:45:26;14.80;99.90
25200;DHT22;33094;48.782;9.162;2023-05-07T01:47:53;14.80;99.90
25200;DHT22;33094;48.782;9.162;2023-05-07T01:50:20;15.50;99.90
25200;DHT22;33094;48.782;9.162;2023-05-07T01:52:47;15.00;99.90
25200;DHT22;33094;48.782;9.162;2023-05-07T01:55:14;14.70;99.90
25200;DHT22;33094;48.782;9.162;2023-05-07T01:57:40;14.80;99.90
25200;DHT22;33094;48.782;9.162;2023-05-07T02:00:06;14.80;99.90
25200;DHT22;33094;48.782;9.162;2023-05-07T02:02:34;14.80;99.90
25200;DHT22;33094;48.782;9.162;2023-05-07T02:05:00;14.70;99.90
25200;DHT22;33094;48.782;9.162;2023-05-07T02:07:26;14.70;99.90
25200;DHT22;33094;48.782;9.162;2023-05-07T02:09:52;14.70;99.90
25200;DHT22;33094;48.782;9.162;2023-05-07T02:12:18;14.70;99.90
25200;DHT22;33094;48.782;9.162;2023-05-07T02:14:43;14.60;99.90
25200;DHT22;33094;48.782;9.162;2023-05-07T02:17:09;15.00;99.90
25200;DHT22;33094;48.782;9.162;2023-05-07T02:19:34;14.60;99.90
25200;DHT22;33094;48.782;9.162;2023-05-07T02:22:00;15.30;99.90
25200;DHT22;33094;48.782;9.162;2023-05-07T02:24:26;14.70;99.90
25200;DHT22;33094;48.782;9.162;2023-05-07T02:26:51;15.60;99.90
25200;DHT22;33094;48.782;9.162;2023-05-07T02:29:17;14.80;99.90
25200;DHT22;33094;48.782;9.162;2023-05-07T02:31:42;14.70;99.90
25200;DHT22;33094;48.782;9.162;2023-05-07T02:34:08;14.60;99.90
25200;DHT22;33094;48.782;9.162;2023-05-07T02:36:33;15.20;99.90
25200;DHT22;33094;48.782;9.162;2023-05-07T02:38:59;14.50;99.90
25200;DHT22;33094;48.782;9.162;2023-05-07T02:41:24;14.40;99.90
25200;DHT22;33094;48.782;9.162;2023-05-07T02:43:50;14.40;99.90
25200;DHT22;33094;48.782;9.162;2023-05-07T02:46:16;14.50;99.90
25200;DHT22;33094;48.782;9.162;2023-05-07T02:48:41;14.60;99.90
25200;DHT22;33094;48.782;9.162;2023-05-07T02:51:07;14.80;99.90
25200;DHT22;33094;48.782;9.162;2023-05-07T02:53:32;14.90;99.90
25200;DHT22;33094;48.782;9.162;2023-05-07T02:56:00;14.40;99.90
25200;DHT22;33094;48.782;9.162;2023-05-07T02:58:26;15.00;99.90
25200;DHT22;33094;48.782;9.162;2023-05-07T03:00:52;14.40;99.90
25200;DHT22;33094;48.782;9.162;2023-05-07T03:03:20;14.30;99.90
25200;DHT22;33094;48.782;9.162;2023-05-07T03:05:45;14.30;99.90
25200;DHT22;33094;48.782;9.162;2023-05-07T03:08:11;14.70;99.90
25200;DHT22;33094;48.782;9.162;2023-05-07T03:10:37;14.20;99.90
25200;DHT22;33094;48.782;9.162;2023-05-07T03:13:03;14.20;99.90
25200;DHT22;33094;48.782;9.162;2023-05-07T03:15:29;14.10;99.90
25200;DHT22;33094;48.782;9.162;2023-05-07T03:17:55;14.30;99.90
25200;DHT22;33094;48.782;9.162;2023-05-07T03:20:20;14.70;99.90
25200;DHT22;33094;48.782;9.162;2023-05-07T03:22:46;14.10;99.90
25200;DHT22;33094;48.782;9.162;2023-05-07T03:25:12;14.10;99.90
25200;DHT22;33094;48.782;9.162;2023-05-07T03:27:38;14.90;99.90
25200;DHT22;33094;48.782;9.162;2023-05-07T03:30:04;15.10;99.90
25200;DHT22;33094;48.782;9.162;2023-05-07T03:32:29;14.20;99.90
25200;DHT22;33094;48.782;9.162;2023-05-07T03:34:55;14.20;99.90
25200;DHT22;33094;48.782;9.162;2023-05-07T03:37:21;14.30;99.90
25200;DHT22;33094;48.782;9.162;2023-05-07T03:39:47;14.30;99.90
25200;DHT22;33094;48.782;9.162;2023-05-07T03:42:12;14.30;99.90
25200;DHT22;33094;48.782;9.162;2023-05-07T03:44:38;14.20;99.90
25200;DHT22;33094;48.782;9.162;2023-05-07T03:47:04;14.10;99.90
25200;DHT22;33094;48.782;9.162;2023-05-07T03:49:29;14.00;99.90
25200;DHT22;33094;48.782;9.162;2023-05-07T03:51:55;14.20;99.90
25200;DHT22;33094;48.782;9.162;2023-05-07T03:54:21;13.90;99.90
25200;DHT22;33094;48.782;9.162;2023-05-07T03:56:46;14.20;99.90
25200;DHT22;33094;48.782;9.162;2023-05-07T03:59:15;14.00;99.90
25200;DHT22;33094;48.782;9.162;2023-05-07T04:01:40;13.90;99.90
25200;DHT22;33094;48.782;9.162;2023-05-07T04:04:06;13.80;99.90
25200;DHT22;33094;48.782;9.162;2023-05-07T04:06:32;13.80;99.90
25200;DHT22;33094;48.782;9.162;2023-05-07T04:08:57;13.90;99.90
25200;DHT22;33094;48.782;9.162;2023-05-07T04:11:23;15.30;99.90
25200;DHT22;33094;48.782;9.162;2023-05-07T04:13:49;13.90;99.90
25200;DHT22;33094;48.782;9.162;2023-05-07T04:16:14;14.70;99.90
25200;DHT22;33094;48.782;9.162;2023-05-07T04:18:41;14.50;99.90
25200;DHT22;33094;48.782;9.162;2023-05-07T04:21:22;13.80;99.90
25200;DHT22;33094;48.782;9.162;2023-05-07T04:23:49;14.80;99.90
25200;DHT22;33094;48.782;9.162;2023-05-07T04:26:15;14.10;99.90
25200;DHT22;33094;48.782;9.162;2023-05-07T04:28:41;14.10;99.90
25200;DHT22;33094;48.782;9.162;2023-05-07T04:31:07;13.90;99.90
25200;DHT22;33094;48.782;9.162;2023-05-07T04:33:33;13.90;99.90
25200;DHT22;33094;48.782;9.162;2023-05-07T04:36:01;13.80;99.90
25200;DHT22;33094;48.782;9.162;2023-05-07T04:38:30;13.70;99.90
25200;DHT22;33094;48.782;9.162;2023-05-07T04:40:58;15.00;99.90
25200;DHT22;33094;48.782;9.162;2023-05-07T04:43:23;15.00;99.90
25200;DHT22;33094;48.782;9.162;2023-05-07T04:45:51;13.70;99.90
25200;DHT22;33094;48.782;9.162;2023-05-07T04:48:17;14.00;99.90
25200;DHT22;33094;48.782;9.162;2023-05-07T04:50:46;14.30;99.90
25200;DHT22;33094;48.782;9.162;2023-05-07T04:53:12;14.60;99.90
25200;DHT22;33094;48.782;9.162;2023-05-07T04:55:38;13.90;99.90
25200;DHT22;33094;48.782;9.162;2023-05-07T04:58:03;14.60;99.90
25200;DHT22;33094;48.782;9.162;2023-05-07T05:00:30;14.20;99.90
25200;DHT22;33094;48.782;9.162;2023-05-07T05:02:56;14.00;99.90
25200;DHT22;33094;48.782;9.162;2023-05-07T05:05:21;14.90;99.90
25200;DHT22;33094;48.782;9.162;2023-05-07T05:07:47;14.30;99.90
25200;DHT22;33094;48.782;9.162;2023-05-07T05:10:13;14.20;99.90
25200;DHT22;33094;48.782;9.162;2023-05-07T05:12:39;14.20;99.90
25200;DHT22;33094;48.782;9.162;2023-05-07T05:15:05;14.90;99.90
25200;DHT22;33094;48.782;9.162;2023-05-07T05:17:31;14.00;99.90
25200;DHT22;33094;48.782;9.162;2023-05-07T05:19:57;14.10;99.90
25200;DHT22;33094;48.782;9.162;2023-05-07T05:22:22;14.00;99.90
25200;DHT22;33094;48.782;9.162;2023-05-07T05:24:48;14.00;99.90
25200;DHT22;33094;48.782;9.162;2023-05-07T05:27:13;14.50;99.90
25200;DHT22;33094;48.782;9.162;2023-05-07T05:29:39;14.20;99.90
25200;DHT22;33094;48.782;9.162;2023-05-07T05:32:05;14.70;99.90
25200;DHT22;33094;48.782;9.162;2023-05-07T05:34:30;14.30;99.90
25200;DHT22;33094;48.782;9.162;2023-05-07T05:36:56;14.20;99.90
25200;DHT22;33094;48.782;9.162;2023-05-07T05:39:22;14.20;99.90
25200;DHT22;33094;48.782;9.162;2023-05-07T05:41:48;14.40;99.90
25200;DHT22;33094;48.782;9.162;2023-05-07T05:44:14;15.00;99.90
25200;DHT22;33094;48.782;9.162;2023-05-07T05:46:39;15.00;99.90
25200;DHT22;33094;48.782;9.162;2023-05-07T05:49:05;15.50;99.90
25200;DHT22;33094;48.782;9.162;2023-05-07T05:51:31;15.90;99.90
25200;DHT22;33094;48.782;9.162;2023-05-07T05:53:56;15.90;99.90
25200;DHT22;33094;48.782;9.162;2023-05-07T05:56:22;15.60;99.90
25200;DHT22;33094;48.782;9.162;2023-05-07T05:58:48;15.60;99.90
25200;DHT22;33094;48.782;9.162;2023-05-07T06:01:13;15.60;99.90
25200;DHT22;33094;48.782;9.162;2023-05-07T06:03:39;15.50;99.90
25200;DHT22;33094;48.782;9.162;2023-05-07T06:06:05;15.50;99.90
25200;DHT22;33094;48.782;9.162;2023-05-07T06:08:30;15.70;99.90
25200;DHT22;33094;48.782;9.162;2023-05-07T06:10:56;15.90;99.90
25200;DHT22;33094;48.782;9.162;2023-05-07T06:13:22;15.90;99.90
25200;DHT22;33094;48.782;9.162;2023-05-07T06:15:49;15.80;99.90
25200;DHT22;33094;48.782;9.162;2023-05-07T06:18:14;15.70;99.90
25200;DHT22;33094;48.782;9.162;2023-05-07T06:20:40;15.80;99.90
25200;DHT22;33094;48.782;9.162;2023-05-07T06:23:06;15.80;99.90
25200;DHT22;33094;48.782;9.162;2023-05-07T06:25:31;16.10;99.90
25200;DHT22;33094;48.782;9.162;2023-05-07T06:54:11;16.10;99.90
25200;DHT22;33094;48.782;9.162;2023-05-07T07:00:40;16.30;99.90
25200;DHT22;33094;48.782;9.162;2023-05-07T07:06:18;16.20;99.90
25200;DHT22;33094;48.782;9.162;2023-05-07T07:27:05;17.10;99.90
25200;DHT22;33094;48.782;9.162;2023-05-07T07:29:36;17.50;99.90
25200;DHT22;33094;48.782;9.162;2023-05-07T07:35:45;18.20;99.90
25200;DHT22;33094;48.782;9.162;2023-05-07T07:41:53;19.20;99.90
25200;DHT22;33094;48.782;9.162;2023-05-07T07:44:19;19.50;99.60
25200;DHT22;33094;48.782;9.162;2023-05-07T07:47:00;19.80;99.00
25200;DHT22;33094;48.782;9.162;2023-05-07T07:53:26;20.90;97.60
25200;DHT22;33094;48.782;9.162;2023-05-07T07:56:04;21.50;96.90
25200;DHT22;33094;48.782;9.162;2023-05-07T07:58:30;21.80;96.50
25200;DHT22;33094;48.782;9.162;2023-05-07T08:00:55;21.60;96.70
25200;DHT22;33094;48.782;9.162;2023-05-07T08:03:21;21.70;96.60
25200;DHT22;33094;48.782;9.162;2023-05-07T08:05:47;21.90;96.40
25200;DHT22;33094;48.782;9.162;2023-05-07T08:11:38;22.00;96.20
25200;DHT22;33094;48.782;9.162;2023-05-07T08:14:09;22.20;95.90
25200;DHT22;33094;48.782;9.162;2023-05-07T08:16:35;22.30;96.10
25200;DHT22;33094;48.782;9.162;2023-05-07T08:19:01;22.20;95.90
25200;DHT22;33094;48.782;9.162;2023-05-07T08:21:26;22.30;96.10
25200;DHT22;33094;48.782;9.162;2023-05-07T09:09:36;28.20;88.20
25200;DHT22;33094;48.782;9.162;2023-05-07T09:12:02;27.90;88.40
25200;DHT22;33094;48.782;9.162;2023-05-07T09:14:29;28.20;87.70
25200;DHT22;33094;48.782;9.162;2023-05-07T09:16:56;27.90;87.40
25200;DHT22;33094;48.782;9.162;2023-05-07T09:19:26;27.40;89.10
25200;DHT22;33094;48.782;9.162;2023-05-07T09:22:01;28.40;87.20
25200;DHT22;33094;48.782;9.162;2023-05-07T09:24:28;29.00;86.50
25200;DHT22;33094;48.782;9.162;2023-05-07T09:26:57;29.80;85.60
25200;DHT22;33094;48.782;9.162;2023-05-07T09:29:26;30.40;83.30
25200;DHT22;33094;48.782;9.162;2023-05-07T09:31:54;30.50;83.90
25200;DHT22;33094;48.782;9.162;2023-05-07T09:34:20;29.80;84.30
25200;DHT22;33094;48.782;9.162;2023-05-07T09:36:46;29.80;84.20
25200;DHT22;33094;48.782;9.162;2023-05-07T09:39:12;30.50;83.00
25200;DHT22;33094;48.782;9.162;2023-05-07T09:41:45;30.90;82.80
25200;DHT22;33094;48.782;9.162;2023-05-07T09:44:24;30.80;83.30
25200;DHT22;33094;48.782;9.162;2023-05-07T09:46:54;31.00;82.60
25200;DHT22;33094;48.782;9.162;2023-05-07T09:49:22;29.90;83.00
25200;DHT22;33094;48.782;9.162;2023-05-07T09:51:50;30.20;83.10
25200;DHT22;33094;48.782;9.162;2023-05-07T09:54:16;30.60;82.00
25200;DHT22;33094;48.782;9.162;2023-05-07T09:56:45;30.70;82.20
25200;DHT22;33094;48.782;9.162;2023-05-07T09:59:14;31.10;81.10
25200;DHT22;33094;48.782;9.162;2023-05-07T10:01:44;31.30;80.30
25200;DHT22;33094;48.782;9.162;2023-05-07T10:04:12;30.90;79.80
25200;DHT22;33094;48.782;9.162;2023-05-07T10:06:40;30.20;81.50
25200;DHT22;33094;48.782;9.162;2023-05-07T10:09:07;29.90;81.90
25200;DHT22;33094;48.782;9.162;2023-05-07T10:11:36;30.00;81.80
25200;DHT22;33094;48.782;9.162;2023-05-07T10:14:03;29.80;82.30
25200;DHT22;33094;48.782;9.162;2023-05-07T10:16:35;29.80;82.60
25200;DHT22;33094;48.782;9.162;2023-05-07T10:19:05;29.70;81.90
25200;DHT22;33094;48.782;9.162;2023-05-07T10:21:36;30.00;82.50
25200;DHT22;33094;48.782;9.162;2023-05-07T10:24:32;30.40;82.30
25200;DHT22;33094;48.782;9.162;2023-05-07T10:27:01;30.20;81.50
25200;DHT22;33094;48.782;9.162;2023-05-07T10:29:33;29.60;82.70
25200;DHT22;33094;48.782;9.162;2023-05-07T10:32:19;28.60;83.70
25200;DHT22;33094;48.782;9.162;2023-05-07T10:34:54;29.10;83.70
25200;DHT22;33094;48.782;9.162;2023-05-07T10:37:27;30.30;81.60
25200;DHT22;33094;48.782;9.162;2023-05-07T10:39:54;29.10;81.90
25200;DHT22;33094;48.782;9.162;2023-05-07T10:42:19;29.00;82.00
25200;DHT22;33094;48.782;9.162;2023-05-07T10:44:45;29.70;82.30
25200;DHT22;33094;48.782;9.162;2023-05-07T10:47:16;30.70;80.90
25200;DHT22;33094;48.782;9.162;2023-05-07T10:52:16;31.10;79.90
25200;DHT22;33094;48.782;9.162;2023-05-07T10:54:43;29.70;81.70
25200;DHT22;33094;48.782;9.162;2023-05-07T10:59:57;26.60;86.40
25200;DHT22;33094;48.782;9.162;2023-05-07T11:02:23;26.40;85.10
25200;DHT22;33094;48.782;9.162;2023-05-07T11:05:24;26.30;85.80
25200;DHT22;33094;48.782;9.162;2023-05-07T11:08:48;25.90;86.60
25200;DHT22;33094;48.782;9.162;2023-05-07T11:11:48;26.10;87.60
25200;DHT22;33094;48.782;9.162;2023-05-07T11:17:08;26.60;85.50
25200;DHT22;33094;48.782;9.162;2023-05-07T11:19:51;26.60;85.30
25200;DHT22;33094;48.782;9.162;2023-05-07T11:25:06;26.50;84.70
25200;DHT22;33094;48.782;9.162;2023-05-07T11:27:32;26.60;84.80
25200;DHT22;33094;48.782;9.162;2023-05-07T11:29:59;26.30;85.10
25200;DHT22;33094;48.782;9.162;2023-05-07T11:32:28;26.10;86.80
25200;DHT22;33094;48.782;9.162;2023-05-07T11:34:55;26.20;87.50
25200;DHT22;33094;48.782;9.162;2023-05-07T11:37:22;26.30;86.10
25200;DHT22;33094;48.782;9.162;2023-05-07T11:39:48;26.00;87.40
25200;DHT22;33094;48.782;9.162;2023-05-07T11:42:32;25.70;89.10
25200;DHT22;33094;48.782;9.162;2023-05-07T11:44:59;25.60;89.40
25200;DHT22;33094;48.782;9.162;2023-05-07T11:47:25;25.50;89.80
25200;DHT22;33094;48.782;9.162;2023-05-07T11:49:54;25.60;90.00
25200;DHT22;33094;48.782;9.162;2023-05-07T11:52:22;25.40;89.60
25200;DHT22;33094;48.782;9.162;2023-05-07T11:54:55;25.30;89.70
25200;DHT22;33094;48.782;9.162;2023-05-07T11:57:23;24.90;90.40
25200;DHT22;33094;48.782;9.162;2023-05-07T11:59:56;24.60;90.50
25200;DHT22;33094;48.782;9.162;2023-05-07T12:02:22;24.50;90.50
25200;DHT22;33094;48.782;9.162;2023-05-07T12:04:47;24.40;90.80
25200;DHT22;33094;48.782;9.162;2023-05-07T12:07:14;24.20;91.10
25200;DHT22;33094;48.782;9.162;2023-05-07T12:09:41;24.00;91.40
25200;DHT22;33094;48.782;9.162;2023-05-07T12:12:07;23.80;91.60
25200;DHT22;33094;48.782;9.162;2023-05-07T12:14:37;23.70;92.10
25200;DHT22;33094;48.782;9.162;2023-05-07T12:17:03;23.60;93.30
25200;DHT22;33094;48.782;9.162;2023-05-07T12:19:30;23.30;94.00
25200;DHT22;33094;48.782;9.162;2023-05-07T12:21:57;23.00;95.30
25200;DHT22;33094;48.782;9.162;2023-05-07T12:24:22;22.50;96.70
25200;DHT22;33094;48.782;9.162;2023-05-07T12:26:48;21.80;98.50
25200;DHT22;33094;48.782;9.162;2023-05-07T12:29:14;21.00;99.60
25200;DHT22;33094;48.782;9.162;2023-05-07T12:31:41;20.40;99.90
25200;DHT22;33094;48.782;9.162;2023-05-07T12:34:07;19.50;99.90
25200;DHT22;33094;48.782;9.162;2023-05-07T12:36:40;18.60;99.90
25200;DHT22;33094;48.782;9.162;2023-05-07T12:39:06;17.90;99.90
25200;DHT22;33094;48.782;9.162;2023-05-07T12:41:58;17.40;99.90
25200;DHT22;33094;48.782;9.162;2023-05-07T12:44:23;17.10;99.90
25200;DHT22;33094;48.782;9.162;2023-05-07T12:46:49;16.90;99.90
25200;DHT22;33094;48.782;9.162;2023-05-07T12:49:15;16.90;99.90
25200;DHT22;33094;48.782;9.162;2023-05-07T12:51:40;16.70;99.90
25200;DHT22;33094;48.782;9.162;2023-05-07T12:54:06;16.60;99.90
25200;DHT22;33094;48.782;9.162;2023-05-07T12:56:35;16.60;99.90
25200;DHT22;33094;48.782;9.162;2023-05-07T12:59:01;16.60;99.90
25200;DHT22;33094;48.782;9.162;2023-05-07T13:01:30;16.50;99.90
25200;DHT22;33094;48.782;9.162;2023-05-07T13:04:00;16.30;99.90
25200;DHT22;33094;48.782;9.162;2023-05-07T13:06:26;16.10;99.90
25200;DHT22;33094;48.782;9.162;2023-05-07T13:08:52;16.10;99.90
25200;DHT22;33094;48.782;9.162;2023-05-07T13:11:18;15.90;99.90
25200;DHT22;33094;48.782;9.162;2023-05-07T13:13:43;15.80;99.90
25200;DHT22;33094;48.782;9.162;2023-05-07T13:16:10;15.50;99.90
25200;DHT22;33094;48.782;9.162;2023-05-07T13:18:37;15.70;99.90
25200;DHT22;33094;48.782;9.162;2023-05-07T13:21:03;15.80;99.90
25200;DHT22;33094;48.782;9.162;2023-05-07T13:23:28;15.70;99.90
25200;DHT22;33094;48.782;9.162;2023-05-07T13:25:54;15.50;99.90
25200;DHT22;33094;48.782;9.162;2023-05-07T13:28:21;15.40;99.90
25200;DHT22;33094;48.782;9.162;2023-05-07T13:30:47;15.50;99.90
25200;DHT22;33094;48.782;9.162;2023-05-07T13:33:13;15.70;99.90
25200;DHT22;33094;48.782;9.162;2023-05-07T13:35:38;15.60;99.90
25200;DHT22;33094;48.782;9.162;2023-05-07T13:38:04;15.60;99.90
25200;DHT22;33094;48.782;9.162;2023-05-07T13:40:30;15.60;99.90
25200;DHT22;33094;48.782;9.162;2023-05-07T13:42:59;15.60;99.90
25200;DHT22;33094;48.782;9.162;2023-05-07T13:45:30;15.50;99.90
25200;DHT22;33094;48.782;9.162;2023-05-07T13:47:56;15.60;99.90
25200;DHT22;33094;48.782;9.162;2023-05-07T13:50:22;15.70;99.90
25200;DHT22;33094;48.782;9.162;2023-05-07T13:52:48;15.70;99.90
25200;DHT22;33094;48.782;9.162;2023-05-07T13:55:24;15.70;99.90
25200;DHT22;33094;48.782;9.162;2023-05-07T13:58:01;15.70;99.90
25200;DHT22;33094;48.782;9.162;2023-05-07T14:00:28;15.80;99.90
25200;DHT22;33094;48.782;9.162;2023-05-07T14:02:55;15.70;99.90
25200;DHT22;33094;48.782;9.162;2023-05-07T14:05:21;15.60;99.90
25200;DHT22;33094;48.782;9.162;2023-05-07T14:07:49;15.50;99.90
25200;DHT22;33094;48.782;9.162;2023-05-07T14:10:17;15.50;99.90
25200;DHT22;33094;48.782;9.162;2023-05-07T14:12:44;15.50;99.90
25200;DHT22;33094;48.782;9.162;2023-05-07T14:15:10;15.40;99.90
25200;DHT22;33094;48.782;9.162;2023-05-07T14:17:35;15.40;99.90
25200;DHT22;33094;48.782;9.162;2023-05-07T14:20:01;15.40;99.90
25200;DHT22;33094;48.782;9.162;2023-05-07T14:22:27;15.50;99.90
25200;DHT22;33094;48.782;9.162;2023-05-07T14:24:52;15.60;99.90
25200;DHT22;33094;48.782;9.162;2023-05-07T14:27:18;15.60;99.90
25200;DHT22;33094;48.782;9.162;2023-05-07T14:29:44;15.70;99.90
25200;DHT22;33094;48.782;9.162;2023-05-07T14:32:11;15.60;99.90
25200;DHT22;33094;48.782;9.162;2023-05-07T14:34:36;15.80;99.90
25200;DHT22;33094;48.782;9.162;2023-05-07T14:37:02;15.90;99.90
25200;DHT22;33094;48.782;9.162;2023-05-07T14:39:28;15.70;99.90
25200;DHT22;33094;48.782;9.162;2023-05-07T14:41:53;15.80;99.90
25200;DHT22;33094;48.782;9.162;2023-05-07T14:44:21;15.80;99.90
25200;DHT22;33094;48.782;9.162;2023-05-07T14:46:46;15.70;99.90
25200;DHT22;33094;48.782;9.162;2023-05-07T14:49:14;15.60;99.90
25200;DHT22;33094;48.782;9.162;2023-05-07T14:51:43;15.70;99.90
25200;DHT22;33094;48.782;9.162;2023-05-07T14:54:09;15.80;99.90
25200;DHT22;33094;48.782;9.162;2023-05-07T14:56:35;15.80;99.90
25200;DHT22;33094;48.782;9.162;2023-05-07T14:59:02;16.00;99.90
25200;DHT22;33094;48.782;9.162;2023-05-07T15:01:28;16.00;99.90
25200;DHT22;33094;48.782;9.162;2023-05-07T15:03:54;16.20;99.90
25200;DHT22;33094;48.782;9.162;2023-05-07T15:06:21;16.40;99.90
25200;DHT22;33094;48.782;9.162;2023-05-07T15:08:47;16.40;99.90
25200;DHT22;33094;48.782;9.162;2023-05-07T15:11:13;16.40;99.90
25200;DHT22;33094;48.782;9.162;2023-05-07T15:13:39;16.60;99.90
25200;DHT22;33094;48.782;9.162;2023-05-07T15:16:05;16.60;99.90
25200;DHT22;33094;48.782;9.162;2023-05-07T15:18:31;16.60;99.90
25200;DHT22;33094;48.782;9.162;2023-05-07T15:20:56;16.70;99.90
25200;DHT22;33094;48.782;9.162;2023-05-07T15:23:23;16.80;99.90
25200;DHT22;33094;48.782;9.162;2023-05-07T15:25:48;17.30;99.90
25200;DHT22;33094;48.782;9.162;2023-05-07T15:28:14;16.90;99.90
25200;DHT22;33094;48.782;9.162;2023-05-07T15:30:40;16.90;99.90
25200;DHT22;33094;48.782;9.162;2023-05-07T15:33:05;17.40;99.90
25200;DHT22;33094;48.782;9.162;2023-05-07T15:35:31;18.00;99.90
25200;DHT22;33094;48.782;9.162;2023-05-07T15:37:56;16.90;99.90
25200;DHT22;33094;48.782;9.162;2023-05-07T15:40:22;16.90;99.90
25200;DHT22;33094;48.782;9.162;2023-05-07T15:42:48;16.00;99.90
25200;DHT22;33094;48.782;9.162;2023-05-07T15:45:14;17.20;99.90
25200;DHT22;33094;48.782;9.162;2023-05-07T15:47:39;17.50;99.90
25200;DHT22;33094;48.782;9.162;2023-05-07T15:50:06;17.10;99.90
25200;DHT22;33094;48.782;9.162;2023-05-07T15:52:31;17.10;99.90
25200;DHT22;33094;48.782;9.162;2023-05-07T15:54:58;17.60;99.90
25200;DHT22;33094;48.782;9.162;2023-05-07T15:57:24;17.10;99.90
25200;DHT22;33094;48.782;9.162;2023-05-07T15:59:50;17.10;99.90
25200;DHT22;33094;48.782;9.162;2023-05-07T16:02:15;17.20;99.90
25200;DHT22;33094;48.782;9.162;2023-05-07T16:04:41;17.30;99.90
25200;DHT22;33094;48.782;9.162;2023-05-07T16:07:07;17.30;99.90
25200;DHT22;33094;48.782;9.162;2023-05-07T16:09:33;17.90;99.90
25200;DHT22;33094;48.782;9.162;2023-05-07T16:12:01;17.20;99.90
25200;DHT22;33094;48.782;9.162;2023-05-07T16:14:28;17.10;99.90
25200;DHT22;33094;48.782;9.162;2023-05-07T16:16:53;18.00;99.90
25200;DHT22;33094;48.782;9.162;2023-05-07T16:19:19;17.10;99.90
25200;DHT22;33094;48.782;9.162;2023-05-07T16:21:44;17.20;99.90
25200;DHT22;33094;48.782;9.162;2023-05-07T16:24:10;17.30;99.90
25200;DHT22;33094;48.782;9.162;2023-05-07T16:26:36;17.50;99.90
25200;DHT22;33094;48.782;9.162;2023-05-07T16:29:03;17.20;99.90
25200;DHT22;33094;48.782;9.162;2023-05-07T16:31:29;17.40;99.90
25200;DHT22;33094;48.782;9.162;2023-05-07T16:33:54;17.20;99.90
25200;DHT22;33094;48.782;9.162;2023-05-07T16:36:20;17.30;99.90
25200;DHT22;33094;48.782;9.162;2023-05-07T16:38:46;17.20;99.90
25200;DHT22;33094;48.782;9.162;2023-05-07T16:41:12;17.10;99.90
25200;DHT22;33094;48.782;9.162;2023-05-07T16:43:37;17.20;99.90
25200;DHT22;33094;48.782;9.162;2023-05-07T16:46:03;17.10;99.90
25200;DHT22;33094;48.782;9.162;2023-05-07T16:48:29;18.70;99.90
25200;DHT22;33094;48.782;9.162;2023-05-07T16:50:54;17.20;99.90
25200;DHT22;33094;48.782;9.162;2023-05-07T16:53:20;17.90;99.90
25200;DHT22;33094;48.782;9.162;2023-05-07T16:55:46;17.30;99.90
25200;DHT22;33094;48.782;9.162;2023-05-07T16:58:11;17.30;99.90
25200;DHT22;33094;48.782;9.162;2023-05-07T17:00:37;17.40;99.90
25200;DHT22;33094;48.782;9.162;2023-05-07T17:03:04;17.40;99.90
25200;DHT22;33094;48.782;9.162;2023-05-07T17:05:31;17.40;99.90
25200;DHT22;33094;48.782;9.162;2023-05-07T17:07:56;17.60;99.90
25200;DHT22;33094;48.782;9.162;2023-05-07T17:10:23;17.60;99.90
25200;DHT22;33094;48.782;9.162;2023-05-07T17:12:50;17.50;99.90
25200;DHT22;33094;48.782;9.162;2023-05-07T17:15:16;17.60;99.90
25200;DHT22;33094;48.782;9.162;2023-05-07T17:17:41;17.40;99.90
25200;DHT22;33094;48.782;9.162;2023-05-07T17:20:07;17.40;99.90
25200;DHT22;33094;48.782;9.162;2023-05-07T17:22:33;17.40;99.90
25200;DHT22;33094;48.782;9.162;2023-05-07T17:24:59;17.30;99.90
25200;DHT22;33094;48.782;9.162;2023-05-07T17:27:25;17.40;99.90
25200;DHT22;33094;48.782;9.162;2023-05-07T17:29:51;17.50;99.90
25200;DHT22;33094;48.782;9.162;2023-05-07T17:32:16;17.50;99.90